createdAt,value
2023-05-10T00:00:17.401Z,97684.16
2023-05-10T00:02:45.427Z,97689.38
2023-05-10T00:05:14.587Z,97690.66
2023-05-10T00:07:45.630Z,97696.41
2023-05-10T00:10:14.192Z,97708.97
2023-05-10T00:12:41.965Z,97718.13
2023-05-10T00:15:11.014Z,97727.56
2023-05-10T00:17:38.848Z,97736.75
2023-05-10T00:20:07.690Z,97757.47
2023-05-10T00:22:36.752Z,97767.69
2023-05-10T00:25:04.689Z,97776.06
2023-05-10T00:27:32.422Z,97796.75
2023-05-10T00:30:00.185Z,97806.44
2023-05-10T00:32:28.043Z,97832.88
2023-05-10T00:34:55.856Z,97840.50
2023-05-10T00:37:23.776Z,97855.97
2023-05-10T00:39:52.779Z,97862.25
2023-05-10T00:42:20.489Z,97862.78
2023-05-10T00:44:48.629Z,97848.91
2023-05-10T00:47:16.505Z,97846.00
2023-05-10T00:49:44.818Z,97852.56
2023-05-10T00:52:12.772Z,97837.69
2023-05-10T00:54:40.644Z,97845.75
2023-05-10T00:57:09.798Z,97844.47
2023-05-10T00:59:37.788Z,97834.00
2023-05-10T01:02:05.729Z,97847.09
2023-05-10T01:04:33.699Z,97838.16
2023-05-10T01:07:02.038Z,97829.78
2023-05-10T01:09:30.070Z,97801.28
2023-05-10T01:11:58.785Z,97787.44
2023-05-10T01:14:28.711Z,97814.38
2023-05-10T01:16:57.187Z,97799.44
2023-05-10T01:19:26.977Z,97805.75
2023-05-10T01:22:04.564Z,97788.75
2023-05-10T01:25:13.377Z,97784.84
2023-05-10T01:27:57.739Z,97748.41
2023-05-10T01:30:45.076Z,97742.44
2023-05-10T01:33:20.851Z,97725.44
2023-05-10T01:35:57.414Z,97724.63
2023-05-10T01:38:32.643Z,97700.78
2023-05-10T01:41:14.176Z,97689.00
2023-05-10T01:43:50.457Z,97697.13
2023-05-10T01:46:26.818Z,97678.75
2023-05-10T01:48:59.486Z,97686.09
2023-05-10T01:51:30.969Z,97689.75
2023-05-10T01:54:03.406Z,97692.13
2023-05-10T01:56:34.098Z,97677.66
2023-05-10T01:59:03.517Z,97702.06
2023-05-10T02:01:32.122Z,97705.22
2023-05-10T02:04:01.913Z,97707.38
2023-05-10T02:06:29.608Z,97691.06
2023-05-10T02:08:58.485Z,97703.69
2023-05-10T02:11:28.372Z,97697.66
2023-05-10T02:13:58.348Z,97702.88
2023-05-10T02:16:28.517Z,97694.25
2023-05-10T02:18:59.145Z,97693.69
2023-05-10T02:21:30.052Z,97687.97
2023-05-10T02:24:00.014Z,97697.13
2023-05-10T02:26:28.920Z,97673.88
2023-05-10T02:28:59.315Z,97702.13
2023-05-10T02:31:28.106Z,97681.16
2023-05-10T02:33:57.333Z,97670.75
2023-05-10T02:36:25.298Z,97673.88
2023-05-10T02:38:55.312Z,97673.13
2023-05-10T02:41:24.742Z,97667.63
2023-05-10T02:43:57.030Z,97661.88
2023-05-10T02:46:25.797Z,97674.22
2023-05-10T02:48:53.583Z,97663.75
2023-05-10T02:51:25.689Z,97655.94
2023-05-10T02:53:57.110Z,97651.44
2023-05-10T02:56:30.696Z,97659.84
2023-05-10T02:58:58.518Z,97632.34
2023-05-10T03:01:26.298Z,97631.06
2023-05-10T03:03:54.403Z,97628.97
2023-05-10T03:06:22.167Z,97644.69
2023-05-10T03:08:49.987Z,97629.25
2023-05-10T03:11:30.980Z,97628.75
2023-05-10T03:14:12.351Z,97609.63
2023-05-10T03:16:48.631Z,97616.22
2023-05-10T03:19:20.584Z,97600.22
2023-05-10T03:21:53.215Z,97613.06
2023-05-10T03:24:23.890Z,97607.84
2023-05-10T03:26:57.572Z,97585.53
2023-05-10T03:29:27.703Z,97560.44
2023-05-10T03:31:55.816Z,97571.75
2023-05-10T03:34:25.814Z,97583.75
2023-05-10T03:36:53.464Z,97588.47
2023-05-10T03:39:22.284Z,97588.00
2023-05-10T03:41:50.071Z,97610.22
2023-05-10T03:44:19.799Z,97612.03
2023-05-10T03:46:47.557Z,97610.22
2023-05-10T03:49:15.436Z,97599.72
2023-05-10T03:51:43.278Z,97583.53
2023-05-10T03:54:11.072Z,97610.72
2023-05-10T03:56:38.783Z,97609.47
2023-05-10T03:59:08.450Z,97614.41
2023-05-10T04:01:37.554Z,97606.28
2023-05-10T04:04:05.687Z,97609.69
2023-05-10T04:06:33.963Z,97604.97
2023-05-10T04:09:05.095Z,97594.28
2023-05-10T04:11:32.794Z,97578.31
2023-05-10T04:14:00.556Z,97561.56
2023-05-10T04:16:28.264Z,97564.19
2023-05-10T04:18:57.396Z,97562.34
2023-05-10T04:21:25.057Z,97559.75
2023-05-10T04:23:52.846Z,97546.59
2023-05-10T04:26:21.135Z,97546.38
2023-05-10T04:28:48.920Z,97554.78
2023-05-10T04:31:16.666Z,97553.16
2023-05-10T04:33:44.390Z,97549.97
2023-05-10T04:36:13.954Z,97557.84
2023-05-10T04:38:41.596Z,97566.28
2023-05-10T04:41:10.474Z,97569.34
2023-05-10T04:43:39.335Z,97552.53
2023-05-10T04:46:08.127Z,97557.03
2023-05-10T04:48:36.155Z,97568.03
2023-05-10T04:51:04.984Z,97595.78
2023-05-10T04:53:34.384Z,97590.50
2023-05-10T04:56:02.511Z,97612.00
2023-05-10T04:58:30.344Z,97620.06
2023-05-10T05:00:58.141Z,97619.28
2023-05-10T05:03:25.995Z,97632.66
2023-05-10T05:05:53.840Z,97653.03
2023-05-10T05:08:21.538Z,97655.13
2023-05-10T05:10:51.746Z,97666.88
2023-05-10T05:13:19.468Z,97682.84
2023-05-10T05:15:47.301Z,97677.31
2023-05-10T05:18:15.072Z,97688.84
2023-05-10T05:20:42.832Z,97715.81
2023-05-10T05:23:10.506Z,97727.06
2023-05-10T05:25:38.399Z,97731.75
2023-05-10T05:28:07.651Z,97764.44
2023-05-10T05:30:35.436Z,97773.59
2023-05-10T05:33:03.225Z,97789.81
2023-05-10T05:35:31.115Z,97795.56
2023-05-10T05:37:58.769Z,97790.09
2023-05-10T05:40:26.549Z,97794.00
2023-05-10T05:42:54.253Z,97795.28
2023-05-10T05:45:23.582Z,97810.47
2023-05-10T05:47:51.337Z,97812.03
2023-05-10T05:50:19.538Z,97804.19
2023-05-10T05:52:47.443Z,97803.41
2023-05-10T05:55:15.277Z,97828.00
2023-05-10T05:57:43.340Z,97826.41
2023-05-10T06:00:11.919Z,97829.03
2023-05-10T06:02:41.609Z,97837.66
2023-05-10T06:05:10.436Z,97846.03
2023-05-10T06:07:38.055Z,97879.53
2023-05-10T06:10:06.859Z,97906.72
2023-05-10T06:12:34.478Z,97913.25
2023-05-10T06:15:02.147Z,97921.41
2023-05-10T06:17:29.820Z,97924.56
2023-05-10T06:19:58.896Z,97919.84
2023-05-10T06:22:26.619Z,97946.78
2023-05-10T06:24:54.390Z,97985.22
2023-05-10T06:27:22.666Z,98010.28
2023-05-10T06:29:52.238Z,97999.38
2023-05-10T06:32:24.309Z,98012.72
2023-05-10T06:34:52.049Z,98024.91
2023-05-10T06:37:21.308Z,98007.75
2023-05-10T06:39:49.558Z,98011.41
2023-05-10T06:42:17.275Z,98002.03
2023-05-10T06:44:44.992Z,97989.97
2023-05-10T06:47:12.728Z,97994.19
2023-05-10T06:49:41.092Z,97999.66
2023-05-10T06:52:08.764Z,97994.72
2023-05-10T06:54:38.004Z,97991.34
2023-05-10T06:57:10.768Z,97985.56
2023-05-10T06:59:44.239Z,98007.56
2023-05-10T07:02:12.139Z,98021.97
2023-05-10T07:04:40.211Z,98070.63
2023-05-10T07:07:07.965Z,98065.69
2023-05-10T07:09:37.132Z,98088.22
2023-05-10T07:12:05.800Z,98089.06
2023-05-10T07:14:34.535Z,98105.75
2023-05-10T07:17:02.276Z,98101.88
2023-05-10T07:19:30.828Z,98112.13
2023-05-10T07:21:58.528Z,98116.56
2023-05-10T07:24:26.350Z,98121.47
2023-05-10T07:26:55.661Z,98109.69
2023-05-10T07:29:23.415Z,98150.34
2023-05-10T07:31:51.190Z,98151.16
2023-05-10T07:34:19.285Z,98154.06
2023-05-10T07:36:47.041Z,98167.66
2023-05-10T07:39:21.355Z,98176.84
2023-05-10T07:41:56.271Z,98213.91
2023-05-10T07:44:24.093Z,98259.34
2023-05-10T07:46:51.928Z,98263.78
2023-05-10T07:49:19.716Z,98294.19
2023-05-10T07:51:47.443Z,98299.09
2023-05-10T07:54:16.471Z,98279.66
2023-05-10T07:56:46.719Z,98244.44
2023-05-10T07:59:17.485Z,98236.16
2023-05-10T08:01:46.155Z,98221.59
2023-05-10T08:04:13.903Z,98209.31
2023-05-10T08:06:42.118Z,98209.59
2023-05-10T08:09:10.402Z,98220.09
2023-05-10T08:11:38.264Z,98210.69
2023-05-10T08:14:06.158Z,98167.69
2023-05-10T08:16:35.279Z,98193.38
2023-05-10T08:19:03.152Z,98195.19
2023-05-10T08:21:32.196Z,98192.81
2023-05-10T08:23:59.990Z,98187.00
2023-05-10T08:26:27.791Z,98178.03
2023-05-10T08:28:55.421Z,98223.50
2023-05-10T08:31:23.465Z,98251.06
2023-05-10T08:33:53.542Z,98251.03
2023-05-10T08:36:22.771Z,98253.88
2023-05-10T08:38:52.394Z,98247.28
2023-05-10T08:41:22.811Z,98256.69
2023-05-10T08:43:51.858Z,98286.16
2023-05-10T08:46:21.759Z,98306.59
2023-05-10T08:48:51.039Z,98312.81
2023-05-10T08:51:22.240Z,98331.22
2023-05-10T08:53:50.098Z,98395.47
2023-05-10T08:56:18.869Z,98413.28
2023-05-10T08:58:46.924Z,98422.66
2023-05-10T09:01:17.204Z,98453.72
2023-05-10T09:03:45.860Z,98487.91
2023-05-10T09:06:14.636Z,98471.34
2023-05-10T09:08:45.476Z,98460.56
2023-05-10T09:11:14.546Z,98495.00
2023-05-10T09:13:42.529Z,98524.81
2023-05-10T09:16:21.301Z,98502.31
2023-05-10T09:18:50.643Z,98521.22
2023-05-10T09:21:18.510Z,98529.34
2023-05-10T09:23:48.633Z,98519.16
2023-05-10T09:26:17.071Z,98499.47
2023-05-10T09:28:55.249Z,98470.25
2023-05-10T09:31:23.019Z,98448.13
2023-05-10T09:33:51.714Z,98454.66
2023-05-10T09:36:19.235Z,98553.31
2023-05-10T09:38:49.803Z,98531.78
2023-05-10T09:41:19.104Z,98542.56
2023-05-10T09:43:46.929Z,98577.78
2023-05-10T09:46:14.966Z,98607.75
2023-05-10T09:48:45.937Z,98622.19
2023-05-10T09:51:21.150Z,98587.75
2023-05-10T09:53:51.618Z,98601.19
2023-05-10T09:56:39.579Z,98578.03
2023-05-10T09:59:08.251Z,98614.56
2023-05-10T10:01:35.884Z,98621.66
2023-05-10T10:04:06.698Z,98643.47
2023-05-10T10:06:39.603Z,98635.59
2023-05-10T10:09:09.347Z,98642.31
2023-05-10T10:11:38.164Z,98634.78
2023-05-10T10:14:06.253Z,98636.06
2023-05-10T10:16:34.803Z,98655.47
2023-05-10T10:19:02.733Z,98654.88
2023-05-10T10:21:30.638Z,98642.88
2023-05-10T10:23:58.437Z,98615.34
2023-05-10T10:26:27.905Z,98588.84
2023-05-10T10:29:06.800Z,98624.31
2023-05-10T10:31:41.218Z,98682.88
2023-05-10T10:34:11.997Z,98659.81
2023-05-10T10:36:44.285Z,98694.47
2023-05-10T10:39:13.474Z,98637.50
2023-05-10T10:41:51.756Z,98654.56
2023-05-10T10:44:37.712Z,98680.38
2023-05-10T10:47:28.387Z,98709.81
2023-05-10T10:50:05.702Z,98767.19
2023-05-10T10:52:35.131Z,98769.53
2023-05-10T10:55:06.195Z,98707.97
2023-05-10T10:57:44.655Z,98708.22
2023-05-10T11:00:25.441Z,98748.50
2023-05-10T11:02:55.057Z,98797.72
2023-05-10T11:05:42.290Z,98749.03
2023-05-10T11:08:13.560Z,98826.13
2023-05-10T11:10:42.484Z,98762.69
2023-05-10T11:13:12.220Z,98795.09
2023-05-10T11:15:41.693Z,98842.13
2023-05-10T11:18:28.064Z,98822.91
2023-05-10T11:20:59.965Z,98788.53
2023-05-10T11:23:33.123Z,98763.25
2023-05-10T11:26:02.212Z,98779.78
2023-05-10T11:28:31.373Z,98750.34
2023-05-10T11:30:59.732Z,98743.50
2023-05-10T11:33:27.453Z,98800.59
2023-05-10T11:35:55.161Z,98829.97
2023-05-10T11:38:22.880Z,98842.47
2023-05-10T11:40:54.985Z,98819.78
2023-05-10T11:43:29.220Z,98807.09
2023-05-10T11:45:58.724Z,98838.84
2023-05-10T11:48:26.498Z,98818.56
2023-05-10T11:50:58.069Z,98815.56
2023-05-10T11:53:28.052Z,98832.88
2023-05-10T11:55:55.716Z,98827.03
2023-05-10T11:58:24.376Z,98801.41
2023-05-10T12:00:52.134Z,98795.63
2023-05-10T12:03:21.603Z,98767.19
2023-05-10T12:05:49.580Z,98727.59
2023-05-10T12:08:22.061Z,98751.84
2023-05-10T12:10:49.844Z,98792.66
2023-05-10T12:13:17.799Z,98831.44
2023-05-10T12:15:46.013Z,98746.47
2023-05-10T12:18:13.974Z,98768.88
2023-05-10T12:20:43.529Z,98796.13
2023-05-10T12:23:11.987Z,98869.06
2023-05-10T12:25:40.811Z,98883.03
2023-05-10T12:28:10.969Z,98887.53
2023-05-10T12:30:39.206Z,98845.25
2023-05-10T12:33:11.110Z,98839.59
2023-05-10T12:35:52.198Z,98803.13
2023-05-10T12:38:31.867Z,98792.25
2023-05-10T12:41:00.646Z,98785.56
2023-05-10T12:43:28.570Z,98791.41
2023-05-10T12:45:56.414Z,98823.47
2023-05-10T12:48:24.223Z,98851.78
2023-05-10T12:50:53.298Z,98908.84
2023-05-10T12:53:21.027Z,98885.09
2023-05-10T12:55:48.869Z,98867.44
2023-05-10T12:58:31.306Z,98855.78
2023-05-10T13:01:02.497Z,98836.50
2023-05-10T13:03:30.200Z,98826.72
2023-05-10T13:05:59.289Z,98808.03
2023-05-10T13:08:27.083Z,98806.69
2023-05-10T13:10:54.876Z,98807.38
2023-05-10T13:13:22.557Z,98789.16
2023-05-10T13:15:50.218Z,98760.31
2023-05-10T13:18:18.077Z,98746.41
2023-05-10T13:20:46.191Z,98730.63
2023-05-10T13:23:15.341Z,98729.28
2023-05-10T13:25:43.046Z,98701.19
2023-05-10T13:28:10.798Z,98703.28
2023-05-10T13:30:38.488Z,98687.53
2023-05-10T13:33:06.384Z,98643.75
2023-05-10T13:35:34.183Z,98690.19
2023-05-10T13:38:01.787Z,98688.84
2023-05-10T13:40:30.980Z,98714.06
2023-05-10T13:42:58.693Z,98713.81
2023-05-10T13:45:26.465Z,98717.53
2023-05-10T13:47:54.183Z,98720.22
2023-05-10T13:50:22.330Z,98748.03
2023-05-10T13:52:50.012Z,98761.72
2023-05-10T13:55:18.246Z,98770.16
2023-05-10T13:57:47.498Z,98762.81
2023-05-10T14:00:16.229Z,98741.84
2023-05-10T14:02:44.055Z,98749.75
2023-05-10T14:05:12.788Z,98741.00
2023-05-10T14:07:40.739Z,98794.38
2023-05-10T14:10:08.970Z,98773.94
2023-05-10T14:12:36.569Z,98767.63
2023-05-10T14:15:07.701Z,98741.16
2023-05-10T14:17:35.619Z,98722.69
2023-05-10T14:20:04.676Z,98807.44
2023-05-10T14:22:32.493Z,98827.31
2023-05-10T14:25:00.326Z,98806.53
2023-05-10T14:27:50.300Z,98806.34
2023-05-10T14:30:17.973Z,98828.38
2023-05-10T14:32:45.682Z,98798.22
2023-05-10T14:35:15.423Z,98812.16
2023-05-10T14:37:44.664Z,98805.91
2023-05-10T14:40:13.412Z,98803.00
2023-05-10T14:42:41.335Z,98832.47
2023-05-10T14:45:10.007Z,98820.13
2023-05-10T14:47:39.203Z,98856.16
2023-05-10T14:50:08.038Z,98846.16
2023-05-10T14:52:35.930Z,98862.47
2023-05-10T14:55:03.902Z,98876.13
2023-05-10T14:57:32.214Z,98856.69
2023-05-10T15:00:00.104Z,98808.78
2023-05-10T15:02:28.439Z,98856.94
2023-05-10T15:04:58.517Z,98862.22
2023-05-10T15:07:27.037Z,98887.69
2023-05-10T15:09:55.205Z,98865.38
2023-05-10T15:12:23.149Z,98858.78
2023-05-10T15:14:51.130Z,98860.38
2023-05-10T15:17:18.945Z,98878.78
2023-05-10T15:19:46.927Z,98866.69
2023-05-10T15:22:16.251Z,98852.47
2023-05-10T15:24:44.301Z,98804.38
2023-05-10T15:27:12.266Z,98868.84
2023-05-10T15:29:40.197Z,98924.72
2023-05-10T15:32:08.142Z,98933.63
2023-05-10T15:34:37.167Z,98937.59
2023-05-10T15:37:05.274Z,98950.50
2023-05-10T15:39:34.685Z,98968.66
2023-05-10T15:42:02.660Z,98988.94
2023-05-10T15:44:30.574Z,98964.91
2023-05-10T15:46:58.390Z,98985.28
2023-05-10T15:49:26.694Z,98988.47
2023-05-10T15:51:54.294Z,99012.19
2023-05-10T15:54:21.968Z,99003.44
2023-05-10T15:56:51.213Z,98996.91
2023-05-10T15:59:18.924Z,99007.91
2023-05-10T16:01:46.756Z,98978.47
2023-05-10T16:04:14.514Z,99000.06
2023-05-10T16:06:42.656Z,98962.63
2023-05-10T16:09:10.671Z,98987.41
2023-05-10T16:11:38.552Z,99010.88
2023-05-10T16:14:07.760Z,98991.63
2023-05-10T16:16:35.786Z,98995.84
2023-05-10T16:19:04.041Z,99043.31
2023-05-10T16:21:33.470Z,99006.66
2023-05-10T16:24:01.748Z,99052.44
2023-05-10T16:26:29.395Z,99054.47
2023-05-10T16:28:57.156Z,99049.97
2023-05-10T16:31:26.387Z,99059.41
2023-05-10T16:33:54.188Z,99047.28
2023-05-10T16:36:22.008Z,99037.22
2023-05-10T16:38:49.711Z,99025.78
2023-05-10T16:41:17.618Z,98998.97
2023-05-10T16:43:45.573Z,98997.75
2023-05-10T16:46:13.577Z,98994.31
2023-05-10T16:48:43.012Z,98982.03
2023-05-10T16:51:10.852Z,98960.13
2023-05-10T16:53:38.722Z,98921.72
2023-05-10T16:56:06.868Z,98927.13
2023-05-10T16:58:35.129Z,98896.38
2023-05-10T17:01:02.892Z,98855.78
2023-05-10T17:03:31.150Z,98854.38
2023-05-10T17:06:00.445Z,98829.63
2023-05-10T17:08:28.718Z,98854.56
2023-05-10T17:10:56.857Z,98853.22
2023-05-10T17:13:24.636Z,98850.47
2023-05-10T17:15:52.455Z,98842.69
2023-05-10T17:18:20.430Z,98841.78
2023-05-10T17:20:48.525Z,98852.84
2023-05-10T17:23:17.625Z,98846.25
2023-05-10T17:25:45.362Z,98830.06
2023-05-10T17:28:13.119Z,98834.31
2023-05-10T17:30:41.157Z,98834.34
2023-05-10T17:33:09.035Z,98833.56
2023-05-10T17:35:36.693Z,98850.59
2023-05-10T17:38:04.414Z,98833.84
2023-05-10T17:40:33.484Z,98848.00
2023-05-10T17:43:01.535Z,98868.97
2023-05-10T17:45:29.273Z,98855.16
2023-05-10T17:47:57.084Z,98847.84
2023-05-10T17:50:24.889Z,98879.53
2023-05-10T17:52:52.688Z,98862.06
2023-05-10T17:55:20.430Z,98884.53
2023-05-10T17:57:51.739Z,98892.03
2023-05-10T18:00:19.920Z,98877.19
2023-05-10T18:02:47.725Z,98877.78
2023-05-10T18:05:15.692Z,98894.03
2023-05-10T18:07:43.897Z,98904.00
2023-05-10T18:10:12.281Z,98905.09
2023-05-10T18:12:40.102Z,98893.13
2023-05-10T18:15:10.334Z,98880.66
2023-05-10T18:17:38.124Z,98860.03
2023-05-10T18:20:07.341Z,98855.34
2023-05-10T18:22:35.111Z,98879.81
2023-05-10T18:25:02.982Z,98872.47
2023-05-10T18:27:30.667Z,98858.91
2023-05-10T18:29:58.591Z,98870.34
2023-05-10T18:32:27.941Z,98857.56
2023-05-10T18:34:56.518Z,98856.06
2023-05-10T18:37:24.963Z,98855.84
2023-05-10T18:39:54.310Z,98865.28
2023-05-10T18:42:23.383Z,98883.03
2023-05-10T18:44:52.093Z,98876.84
2023-05-10T18:47:20.779Z,98878.41
2023-05-10T18:49:50.940Z,98891.81
2023-05-10T18:52:19.801Z,98902.34
2023-05-10T18:54:48.555Z,98895.16
2023-05-10T18:57:17.350Z,98917.72
2023-05-10T18:59:46.031Z,98915.56
2023-05-10T19:02:15.219Z,98932.16
2023-05-10T19:04:44.040Z,98935.53
2023-05-10T19:07:13.934Z,98927.84
2023-05-10T19:09:42.775Z,98909.84
2023-05-10T19:12:11.642Z,98896.56
2023-05-10T19:14:40.439Z,98903.97
2023-05-10T19:17:09.046Z,98897.03
2023-05-10T19:19:38.862Z,98886.88
2023-05-10T19:22:07.522Z,98897.22
2023-05-10T19:24:37.529Z,98908.75
2023-05-10T19:27:06.270Z,98930.13
2023-05-10T19:29:34.999Z,98943.78
2023-05-10T19:32:02.810Z,98939.97
2023-05-10T19:34:31.048Z,98927.91
2023-05-10T19:36:59.251Z,98915.63
2023-05-10T19:39:26.974Z,98901.25
2023-05-10T19:41:56.358Z,98890.84
2023-05-10T19:44:24.082Z,98885.97
2023-05-10T19:46:53.265Z,98898.31
2023-05-10T19:49:21.701Z,98895.69
2023-05-10T19:51:49.706Z,98911.13
2023-05-10T19:54:17.601Z,98913.50
2023-05-10T19:56:45.358Z,98921.91
2023-05-10T19:59:15.473Z,98913.53
2023-05-10T20:01:43.270Z,98919.84
2023-05-10T20:04:11.412Z,98926.63
2023-05-10T20:06:39.413Z,98933.44
2023-05-10T20:09:07.227Z,98930.75
2023-05-10T20:11:35.621Z,98937.34
2023-05-10T20:14:03.416Z,98944.44
2023-05-10T20:16:32.793Z,98935.44
2023-05-10T20:19:01.166Z,98939.97
2023-05-10T20:21:29.013Z,98937.69
2023-05-10T20:23:56.814Z,98932.88
2023-05-10T20:26:25.536Z,98945.59
2023-05-10T20:28:53.360Z,98950.63
2023-05-10T20:31:21.373Z,98941.81
2023-05-10T20:33:50.679Z,98941.84
2023-05-10T20:36:18.510Z,98918.88
2023-05-10T20:38:46.290Z,98947.97
2023-05-10T20:41:14.208Z,98947.78
2023-05-10T20:43:41.905Z,98950.31
2023-05-10T20:46:09.893Z,98922.91
2023-05-10T20:48:37.741Z,98922.16
2023-05-10T20:51:06.962Z,98920.09
2023-05-10T20:53:34.819Z,98934.78
2023-05-10T20:56:02.663Z,98947.56
2023-05-10T20:58:30.784Z,98954.13
2023-05-10T21:00:58.590Z,98943.47
2023-05-10T21:03:26.362Z,98961.66
2023-05-10T21:05:54.163Z,98955.50
2023-05-10T21:08:23.204Z,98954.75
2023-05-10T21:10:51.060Z,98945.03
2023-05-10T21:13:18.764Z,98940.94
2023-05-10T21:15:46.623Z,98938.97
2023-05-10T21:18:14.518Z,98936.31
2023-05-10T21:20:42.327Z,98926.38
2023-05-10T21:23:10.168Z,98905.56
2023-05-10T21:25:39.342Z,98899.81
2023-05-10T21:28:07.313Z,98897.28
2023-05-10T21:30:36.056Z,98896.72
2023-05-10T21:33:04.492Z,98899.66
2023-05-10T21:35:32.324Z,98899.66
2023-05-10T21:38:00.148Z,98899.91
2023-05-10T21:40:29.497Z,98902.28
2023-05-10T21:42:58.672Z,98909.34
2023-05-10T21:45:26.453Z,98918.25
2023-05-10T21:47:54.292Z,98918.25
2023-05-10T21:50:22.807Z,98917.94
2023-05-10T21:52:50.587Z,98918.19
2023-05-10T21:55:19.319Z,98923.50
2023-05-10T21:57:46.946Z,98917.22
2023-05-10T22:00:17.108Z,98918.00
2023-05-10T22:02:45.043Z,98921.44
2023-05-10T22:05:12.891Z,98911.75
2023-05-10T22:07:40.501Z,98913.56
2023-05-10T22:10:09.287Z,98910.72
2023-05-10T22:12:37.011Z,98907.28
2023-05-10T22:17:39.715Z,98899.94
2023-05-10T22:20:09.097Z,98902.09
2023-05-10T22:22:37.635Z,98901.81
2023-05-10T22:25:06.612Z,98908.38
2023-05-10T22:27:34.554Z,98898.56
2023-05-10T22:30:02.850Z,98898.78
2023-05-10T22:32:30.665Z,98914.38
2023-05-10T22:34:59.757Z,98909.13
2023-05-10T22:37:27.624Z,98906.66
2023-05-10T22:39:55.280Z,98906.66
2023-05-10T22:42:23.003Z,98903.56
2023-05-10T22:44:50.706Z,98904.28
2023-05-10T22:47:18.390Z,98902.44
2023-05-10T22:49:46.140Z,98907.94
2023-05-10T22:52:15.257Z,98909.28
2023-05-10T22:54:44.194Z,98905.38
2023-05-10T22:57:12.186Z,98902.75
2023-05-10T22:59:39.974Z,98899.91
2023-05-10T23:02:07.901Z,98899.66
2023-05-10T23:04:35.869Z,98914.38
2023-05-10T23:07:03.755Z,98910.16
2023-05-10T23:09:33.163Z,98903.09
2023-05-10T23:12:00.877Z,98906.25
2023-05-10T23:14:28.641Z,98906.66
2023-05-10T23:16:56.349Z,98904.13
2023-05-10T23:19:24.596Z,98897.03
2023-05-10T23:21:52.304Z,98902.06
2023-05-10T23:24:20.090Z,98901.91
2023-05-10T23:26:49.213Z,98901.28
2023-05-10T23:29:16.884Z,98892.19
2023-05-10T23:31:45.822Z,98890.94
2023-05-10T23:34:13.773Z,98890.13
2023-05-10T23:36:41.631Z,98890.94
2023-05-10T23:39:09.402Z,98884.19
2023-05-10T23:41:36.994Z,98878.16
2023-05-10T23:44:06.283Z,98885.78
2023-05-10T23:46:34.007Z,98880.28
2023-05-10T23:49:01.793Z,98876.38
2023-05-10T23:51:29.467Z,98873.75
2023-05-10T23:53:57.167Z,98886.13
2023-05-10T23:56:24.840Z,98874.66
2023-05-10T23:58:52.509Z,98873.63
